createdAt,value
2022-10-04T08:16:36.300Z,99433.25
2022-10-04T08:18:38.533Z,99432.25
2022-10-04T08:20:22.250Z,99429.34
2022-10-04T08:22:24.770Z,99423.97
2022-10-04T08:24:02.717Z,99419.66
2022-10-04T08:26:00.468Z,99406.81
2022-10-04T08:27:58.449Z,99408.00
2022-10-04T08:29:54.753Z,99400.50
2022-10-04T08:31:44.640Z,99400.94
2022-10-04T08:33:31.131Z,99392.56
2022-10-04T08:35:20.605Z,99395.19
2022-10-04T08:37:16.204Z,99388.81
2022-10-04T08:38:49.508Z,99382.28
2022-10-04T08:40:59.910Z,99379.31
2022-10-04T08:43:08.753Z,99370.38
2022-10-04T08:44:42.910Z,99362.91
2022-10-04T08:46:39.108Z,99355.78
2022-10-04T08:48:32.645Z,99357.81
2022-10-04T08:50:18.184Z,99367.63
2022-10-04T08:51:55.703Z,99375.97
2022-10-04T08:53:48.505Z,99381.19
2022-10-04T08:55:28.812Z,99379.16
2022-10-04T08:57:30.630Z,99373.97
2022-10-04T08:59:23.561Z,99382.44
2022-10-04T09:01:04.180Z,99385.31
2022-10-04T09:02:38.536Z,99380.84
2022-10-04T09:04:30.045Z,99376.53
2022-10-04T09:06:46.200Z,99379.09
2022-10-04T09:08:42.419Z,99384.59
2022-10-04T09:10:28.902Z,99384.47
2022-10-04T09:12:09.424Z,99392.78
2022-10-04T09:13:47.047Z,99388.50
2022-10-04T09:15:31.581Z,99391.47
2022-10-04T09:17:40.497Z,99399.38
2022-10-04T09:19:30.143Z,99404.56
2022-10-04T09:21:31.454Z,99407.09
2022-10-04T09:23:12.285Z,99393.59
2022-10-04T09:24:55.538Z,99403.09
2022-10-04T09:26:52.064Z,99390.00
2022-10-04T09:28:41.719Z,99408.31
2022-10-04T09:30:18.078Z,99413.66
2022-10-04T09:31:58.545Z,99404.13
2022-10-04T09:33:54.384Z,99401.03
2022-10-04T09:35:43.978Z,99404.44
2022-10-04T09:37:24.498Z,99407.41
2022-10-04T09:39:30.539Z,99409.34
2022-10-04T09:41:25.203Z,99413.53
2022-10-04T09:43:05.351Z,99408.91
2022-10-04T09:44:39.862Z,99413.09
2022-10-04T09:46:20.229Z,99410.41
2022-10-04T09:48:09.952Z,99417.22
2022-10-04T09:50:00.240Z,99419.19
2022-10-04T09:51:34.414Z,99413.09
2022-10-04T09:53:29.309Z,99414.13
2022-10-04T09:55:05.557Z,99419.47
2022-10-04T09:57:02.613Z,99421.41
2022-10-04T09:58:41.119Z,99418.72
2022-10-04T10:00:19.165Z,99422.00
2022-10-04T10:02:09.272Z,99416.94
2022-10-04T10:03:49.775Z,99419.63
2022-10-04T10:05:36.590Z,99423.03
2022-10-04T10:08:03.888Z,99425.28
2022-10-04T10:09:40.339Z,99432.13
2022-10-04T10:11:51.973Z,99407.88
2022-10-04T10:13:50.528Z,99432.13
2022-10-04T10:15:33.331Z,99424.09
2022-10-04T10:17:19.801Z,99431.53
2022-10-04T10:18:53.896Z,99433.03
2022-10-04T10:20:29.401Z,99436.00
2022-10-04T10:22:19.644Z,99433.31
2022-10-04T10:23:56.272Z,99436.44
2022-10-04T10:25:48.935Z,99431.84
2022-10-04T10:27:20.440Z,99430.34
2022-10-04T10:28:59.314Z,99431.53
2022-10-04T10:30:49.123Z,99434.19
2022-10-04T10:32:35.627Z,99431.09
2022-10-04T10:34:28.940Z,99437.47
2022-10-04T10:36:21.680Z,99431.72
2022-10-04T10:38:14.814Z,99430.50
2022-10-04T10:40:08.409Z,99437.38
2022-10-04T10:41:48.349Z,99431.25
2022-10-04T10:43:31.723Z,99432.28
2022-10-04T10:45:25.075Z,99427.41
2022-10-04T10:47:28.017Z,99439.28
2022-10-04T10:49:26.642Z,99438.41
2022-10-04T10:51:01.963Z,99439.59
2022-10-04T10:52:51.602Z,99432.59
2022-10-04T10:55:02.087Z,99441.38
2022-10-04T10:56:46.247Z,99439.47
2022-10-04T10:58:30.530Z,99443.59
2022-10-04T11:00:21.161Z,99439.00
2022-10-04T11:02:17.132Z,99440.06
2022-10-04T11:04:07.053Z,99440.78
2022-10-04T11:06:06.420Z,99440.78
2022-10-04T11:08:06.276Z,99444.19
2022-10-04T11:10:04.860Z,99444.94
2022-10-04T11:12:24.568Z,99442.28
2022-10-04T11:14:26.930Z,99436.91
2022-10-04T11:16:05.685Z,99446.44
2022-10-04T11:17:59.940Z,99444.53
2022-10-04T11:19:43.203Z,99447.19
2022-10-04T11:21:32.942Z,99427.25
2022-10-04T11:23:19.179Z,99437.22
2022-10-04T11:25:38.133Z,99438.69
2022-10-04T11:27:40.426Z,99436.78
2022-10-04T11:29:28.846Z,99440.19
2022-10-04T11:31:37.620Z,99440.19
2022-10-04T11:33:23.719Z,99441.69
2022-10-04T11:35:03.753Z,99437.81
2022-10-04T11:37:06.252Z,99434.69
2022-10-04T11:39:25.394Z,99433.03
2022-10-04T11:41:41.804Z,99420.69
2022-10-04T11:43:26.746Z,99408.19
2022-10-04T11:45:22.623Z,99423.97
2022-10-04T11:47:19.358Z,99432.44
2022-10-04T11:48:50.816Z,99425.31
2022-10-04T11:50:34.368Z,99426.50
2022-10-04T11:52:27.238Z,99428.72
2022-10-04T11:54:20.226Z,99422.63
2022-10-04T11:55:57.630Z,99427.09
2022-10-04T11:57:44.100Z,99418.63
2022-10-04T11:59:21.117Z,99419.38
2022-10-04T12:01:15.249Z,99414.75
2022-10-04T12:03:05.858Z,99421.16
2022-10-04T12:05:03.314Z,99424.56
2022-10-04T12:06:52.056Z,99418.31
2022-10-04T12:08:32.831Z,99422.03
2022-10-04T12:10:24.311Z,99426.47
2022-10-04T12:12:24.950Z,99415.75
2022-10-04T12:14:03.504Z,99416.09
2022-10-04T12:15:59.261Z,99413.41
2022-10-04T12:17:45.026Z,99414.59
2022-10-04T12:19:42.301Z,99409.50
2022-10-04T12:21:21.202Z,99410.56
2022-10-04T12:23:31.689Z,99416.97
2022-10-04T12:25:10.684Z,99415.31
2022-10-04T12:26:51.157Z,99414.41
2022-10-04T12:28:34.628Z,99417.41
2022-10-04T12:30:30.339Z,99417.72
2022-10-04T12:32:08.859Z,99417.25
2022-10-04T12:33:58.272Z,99413.41
2022-10-04T12:35:53.174Z,99420.97
2022-10-04T12:37:39.581Z,99399.69
2022-10-04T12:39:29.549Z,99411.91
2022-10-04T12:41:22.221Z,99421.88
2022-10-04T12:43:08.844Z,99416.25
2022-10-04T12:44:55.753Z,99419.34
2022-10-04T12:46:46.547Z,99428.13
2022-10-04T12:48:21.329Z,99420.09
2022-10-04T12:50:27.180Z,99422.44
2022-10-04T12:52:16.822Z,99418.59
2022-10-04T12:54:12.376Z,99430.66
2022-10-04T12:55:55.263Z,99425.59
2022-10-04T12:57:44.641Z,99422.00
2022-10-04T12:59:26.971Z,99416.50
2022-10-04T13:01:03.536Z,99416.63
2022-10-04T13:02:54.910Z,99411.97
2022-10-04T13:04:36.706Z,99423.75
2022-10-04T13:06:28.158Z,99421.06
2022-10-04T13:08:26.390Z,99430.88
2022-10-04T13:10:24.016Z,99424.31
2022-10-04T13:12:05.476Z,99421.38
2022-10-04T13:13:58.300Z,99416.16
2022-10-04T13:17:24.656Z,99421.69
2022-10-04T13:17:42.278Z,99422.13
2022-10-04T13:19:22.525Z,99433.59
2022-10-04T13:21:08.102Z,99428.66
2022-10-04T13:23:05.716Z,99430.63
2022-10-04T13:24:37.187Z,99428.84
2022-10-04T13:26:37.822Z,99433.16
2022-10-04T13:28:28.009Z,99422.91
2022-10-04T13:30:20.799Z,99424.84
2022-10-04T13:31:53.062Z,99432.88
2022-10-04T13:33:46.881Z,99431.22
2022-10-04T13:35:25.734Z,99442.25
2022-10-04T13:37:29.348Z,99440.59
2022-10-04T13:39:19.803Z,99437.75
2022-10-04T13:41:03.476Z,99438.03
2022-10-04T13:42:44.088Z,99435.66
2022-10-04T13:44:27.412Z,99437.88
2022-10-04T13:46:23.264Z,99436.38
2022-10-04T13:48:00.492Z,99438.34
2022-10-04T13:50:09.518Z,99447.84
2022-10-04T13:52:02.885Z,99438.34
2022-10-04T13:53:41.150Z,99440.72
2022-10-04T13:55:31.814Z,99440.72
2022-10-04T13:57:50.184Z,99441.47
2022-10-04T13:59:34.524Z,99443.13
2022-10-04T14:01:23.072Z,99438.50
2022-10-04T14:03:13.050Z,99445.94
2022-10-04T14:05:21.980Z,99446.06
2022-10-04T14:06:59.415Z,99448.13
2022-10-04T14:08:36.470Z,99439.03
2022-10-04T14:10:42.339Z,99446.50
2022-10-04T14:12:42.020Z,99440.50
2022-10-04T14:15:03.968Z,99448.38
2022-10-04T14:17:10.943Z,99437.78
2022-10-04T14:18:49.422Z,99436.41
2022-10-04T14:20:48.185Z,99435.81
2022-10-04T14:22:50.653Z,99446.66
2022-10-04T14:24:37.244Z,99443.06
2022-10-04T14:26:50.357Z,99438.72
2022-10-04T14:28:32.020Z,99444.81
2022-10-04T14:30:21.869Z,99439.91
2022-10-04T14:32:11.852Z,99442.13
2022-10-04T14:34:04.781Z,99445.72
2022-10-04T14:35:48.066Z,99443.53
2022-10-04T14:37:57.275Z,99440.53
2022-10-04T14:40:10.467Z,99444.13
2022-10-04T14:41:59.904Z,99438.19
2022-10-04T14:43:43.624Z,99439.09
2022-10-04T14:45:21.545Z,99438.34
2022-10-04T14:47:14.392Z,99431.22
2022-10-04T14:49:23.234Z,99435.09
2022-10-04T14:51:19.681Z,99429.91
2022-10-04T14:53:09.857Z,99435.72
2022-10-04T14:55:10.435Z,99434.22
2022-10-04T14:57:01.744Z,99428.59
2022-10-04T14:58:35.781Z,99433.94
2022-10-04T15:00:17.837Z,99429.31
2022-10-04T15:02:00.971Z,99431.69
2022-10-04T15:03:47.602Z,99423.81
2022-10-04T15:05:39.124Z,99411.91
2022-10-04T15:07:32.593Z,99389.13
2022-10-04T15:09:52.077Z,99420.75
2022-10-04T15:11:39.968Z,99424.75
2022-10-04T15:13:39.498Z,99425.66
2022-10-04T15:15:11.006Z,99421.94
2022-10-04T15:16:57.439Z,99425.81
2022-10-04T15:18:34.395Z,99425.06
2022-10-04T15:20:22.502Z,99421.63
2022-10-04T15:22:27.840Z,99425.81
2022-10-04T15:24:20.606Z,99426.09
2022-10-04T15:26:10.352Z,99431.19
2022-10-04T15:27:46.296Z,99431.34
2022-10-04T15:29:20.889Z,99438.34
2022-10-04T15:30:58.271Z,99439.06
2022-10-04T15:32:48.467Z,99431.94
2022-10-04T15:34:38.725Z,99436.28
2022-10-04T15:36:24.519Z,99428.38
2022-10-04T15:38:28.497Z,99438.66
2022-10-04T15:40:16.506Z,99428.38
2022-10-04T15:41:59.985Z,99442.97
2022-10-04T15:43:57.568Z,99440.75
2022-10-04T15:45:47.844Z,99446.56
2022-10-04T15:47:56.878Z,99451.63
2022-10-04T15:50:05.951Z,99442.84
2022-10-04T15:51:40.796Z,99459.38
2022-10-04T15:53:30.872Z,99454.47
2022-10-04T15:55:12.498Z,99454.47
2022-10-04T15:56:51.846Z,99446.59
2022-10-04T15:58:42.020Z,99452.97
2022-10-04T16:00:20.800Z,99458.66
2022-10-04T16:02:12.585Z,99459.81
2022-10-04T16:03:44.380Z,99463.41
2022-10-04T16:05:47.382Z,99470.69
2022-10-04T16:07:54.362Z,99463.84
2022-10-04T16:09:45.997Z,99465.50
2022-10-04T16:11:35.784Z,99468.19
2022-10-04T16:13:39.372Z,99464.75
2022-10-04T16:15:17.551Z,99469.34
2022-10-04T16:17:18.657Z,99468.19
2022-10-04T16:19:17.963Z,99469.34
2022-10-04T16:21:09.762Z,99475.91
2022-10-04T16:22:41.309Z,99473.97
2022-10-04T16:24:21.625Z,99482.47
2022-10-04T16:25:54.691Z,99477.13
2022-10-04T16:27:37.943Z,99485.91
2022-10-04T16:29:43.658Z,99483.66
2022-10-04T16:31:23.472Z,99483.34
2022-10-04T16:33:12.535Z,99481.84
2022-10-04T16:34:50.850Z,99489.88
2022-10-04T16:36:24.018Z,99492.25
2022-10-04T16:37:56.855Z,99486.19
2022-10-04T16:39:39.335Z,99492.72
2022-10-04T16:41:15.870Z,99490.47
2022-10-04T16:43:01.844Z,99492.41
2022-10-04T16:44:37.482Z,99484.09
2022-10-04T16:46:14.926Z,99496.28
2022-10-04T16:47:54.880Z,99496.72
2022-10-04T16:49:31.213Z,99502.84
2022-10-04T16:51:05.267Z,99512.81
2022-10-04T16:53:18.963Z,99507.44
2022-10-04T16:55:10.531Z,99512.81
2022-10-04T16:56:54.219Z,99516.66
2022-10-04T16:58:28.851Z,99512.06
2022-10-04T17:00:00.816Z,99514.28
2022-10-04T17:01:55.492Z,99523.84
2022-10-04T17:03:30.815Z,99524.13
2022-10-04T17:05:21.956Z,99522.78
2022-10-04T17:07:20.190Z,99526.22
2022-10-04T17:09:00.704Z,99530.81
2022-10-04T17:10:37.550Z,99526.94
2022-10-04T17:12:18.751Z,99530.06
2022-10-04T17:14:05.997Z,99526.38
2022-10-04T17:15:48.604Z,99532.44
2022-10-04T17:17:35.390Z,99532.91
2022-10-04T17:19:31.041Z,99539.75
2022-10-04T17:21:05.176Z,99531.41
2022-10-04T17:22:42.639Z,99528.28
2022-10-04T17:24:27.322Z,99527.97
2022-10-04T17:26:17.611Z,99528.59
2022-10-04T17:27:53.940Z,99527.84
2022-10-04T17:29:49.073Z,99535.13
2022-10-04T17:31:33.070Z,99537.81
2022-10-04T17:33:29.480Z,99540.94
2022-10-04T17:35:22.511Z,99535.28
2022-10-04T17:37:04.531Z,99534.56
2022-10-04T17:39:13.806Z,99540.34
2022-10-04T17:40:52.208Z,99530.97
2022-10-04T17:43:01.481Z,99532.91
2022-10-04T17:44:32.967Z,99540.47
2022-10-04T17:46:23.168Z,99546.59
2022-10-04T17:48:07.043Z,99545.56
2022-10-04T17:49:59.555Z,99547.03
2022-10-04T17:51:42.482Z,99548.50
2022-10-04T17:53:19.591Z,99547.78
2022-10-04T17:54:53.061Z,99547.22
2022-10-04T17:56:35.427Z,99546.31
2022-10-04T17:58:14.081Z,99545.41
2022-10-04T17:59:46.633Z,99550.78
2022-10-04T18:01:25.729Z,99537.38
2022-10-04T18:03:16.583Z,99544.69
2022-10-04T18:04:54.092Z,99550.22
2022-10-04T18:06:56.326Z,99543.34
2022-10-04T18:08:49.555Z,99549.16
2022-10-04T18:10:39.510Z,99552.25
2022-10-04T18:12:30.612Z,99557.31
2022-10-04T18:14:06.700Z,99558.94
2022-10-04T18:15:42.124Z,99553.59
2022-10-04T18:17:24.749Z,99556.28
2022-10-04T18:18:56.715Z,99549.56
2022-10-04T18:20:31.641Z,99556.41
2022-10-04T18:22:19.221Z,99553.44
2022-10-04T18:23:58.217Z,99556.28
2022-10-04T18:25:31.239Z,99560.56
2022-10-04T18:27:10.603Z,99553.13
2022-10-04T18:28:42.637Z,99557.75
2022-10-04T18:30:15.747Z,99560.84
2022-10-04T18:31:48.026Z,99559.38
2022-10-04T18:33:26.704Z,99557.13
2022-10-04T18:35:03.468Z,99556.38
2022-10-04T18:37:15.533Z,99558.03
2022-10-04T18:39:04.401Z,99553.84
2022-10-04T18:40:43.523Z,99555.03
2022-10-04T18:42:28.730Z,99557.44
2022-10-04T18:44:01.017Z,99565.16
2022-10-04T18:45:34.047Z,99562.91
2022-10-04T18:47:15.589Z,99562.91
2022-10-04T18:48:54.950Z,99571.38
2022-10-04T18:50:38.011Z,99571.09
2022-10-04T18:52:14.182Z,99570.34
2022-10-04T18:53:46.745Z,99568.13
2022-10-04T18:55:24.546Z,99567.81
2022-10-04T18:57:19.436Z,99573.16
2022-10-04T18:58:58.393Z,99563.75
2022-10-04T19:00:47.212Z,99572.22
2022-10-04T19:02:57.966Z,99575.66
2022-10-04T19:04:49.285Z,99574.16
2022-10-04T19:06:30.359Z,99573.56
2022-10-04T19:08:40.127Z,99570.44
2022-10-04T19:10:24.013Z,99575.47
2022-10-04T19:12:02.719Z,99572.50
2022-10-04T19:13:42.837Z,99575.19
2022-10-04T19:15:44.732Z,99572.94
2022-10-04T19:17:39.037Z,99579.19
2022-10-04T19:19:18.664Z,99585.28
2022-10-04T19:21:15.343Z,99584.09
2022-10-04T19:23:10.759Z,99582.59
2022-10-04T19:24:55.055Z,99580.34
2022-10-04T19:26:43.632Z,99587.66
2022-10-04T19:28:22.654Z,99580.81
2022-10-04T19:30:11.778Z,99589.59
2022-10-04T19:31:54.984Z,99588.84
2022-10-04T19:33:45.527Z,99591.53
2022-10-04T19:35:45.416Z,99589.28
2022-10-04T19:37:20.388Z,99585.56
2022-10-04T19:39:16.887Z,99593.59
2022-10-04T19:41:04.766Z,99597.44
2022-10-04T19:43:00.258Z,99593.28
2022-10-04T19:44:49.530Z,99594.47
2022-10-04T19:46:42.762Z,99592.53
2022-10-04T19:48:24.680Z,99592.22
2022-10-04T19:50:07.123Z,99599.50
